createdAt,value
2018-08-19T00:01:45.530Z,12.07
2018-08-19T00:04:15.987Z,10.93
2018-08-19T00:06:46.606Z,11.73
2018-08-19T00:09:17.550Z,12.63
2018-08-19T00:11:48.703Z,12.60
2018-08-19T00:14:33.002Z,12.97
2018-08-19T00:17:04.314Z,11.20
2018-08-19T00:19:36.042Z,11.93
2018-08-19T00:22:06.643Z,11.03
2018-08-19T00:24:37.079Z,11.33
2018-08-19T00:27:07.670Z,11.80
2018-08-19T00:29:38.168Z,10.73
2018-08-19T00:32:09.242Z,11.83
2018-08-19T00:34:39.867Z,13.30
2018-08-19T00:37:10.238Z,10.97
2018-08-19T00:39:40.699Z,12.60
2018-08-19T00:42:11.126Z,10.97
2018-08-19T00:44:42.959Z,12.13
2018-08-19T00:47:13.371Z,13.00
2018-08-19T00:49:44.392Z,11.00
2018-08-19T00:52:14.735Z,10.97
2018-08-19T00:54:45.100Z,13.97
2018-08-19T00:57:15.502Z,11.77
2018-08-19T00:59:45.947Z,11.33
2018-08-19T01:02:16.358Z,10.90
2018-08-19T01:05:10.078Z,10.70
2018-08-19T01:07:40.592Z,11.57
2018-08-19T01:10:11.822Z,11.67
2018-08-19T01:12:42.163Z,12.63
2018-08-19T01:15:15.398Z,14.30
2018-08-19T01:17:46.396Z,12.13
2018-08-19T01:20:22.216Z,13.30
2018-08-19T01:22:52.743Z,11.90
2018-08-19T01:25:23.235Z,10.30
2018-08-19T01:27:54.732Z,12.63
2018-08-19T01:30:27.462Z,11.43
2018-08-19T01:32:58.023Z,11.40
2018-08-19T01:35:33.291Z,10.63
2018-08-19T01:38:03.866Z,12.83
2018-08-19T01:40:34.226Z,11.67
2018-08-19T01:43:06.500Z,12.73
2018-08-19T01:45:37.032Z,12.53
2018-08-19T01:48:07.598Z,11.03
2018-08-19T01:50:38.310Z,12.03
2018-08-19T01:53:08.763Z,11.23
2018-08-19T01:55:39.282Z,14.70
2018-08-19T01:58:09.727Z,12.87
2018-08-19T02:00:40.114Z,10.73
2018-08-19T02:03:11.439Z,14.47
2018-08-19T02:05:41.818Z,11.83
2018-08-19T02:08:12.527Z,12.03
2018-08-19T02:10:42.827Z,11.40
2018-08-19T02:13:13.435Z,12.03
2018-08-19T02:15:43.796Z,12.80
2018-08-19T02:18:14.106Z,14.17
2018-08-19T02:20:44.654Z,13.97
2018-08-19T02:23:15.141Z,14.20
2018-08-19T02:25:46.908Z,11.77
2018-08-19T02:28:22.178Z,11.90
2018-08-19T02:31:00.406Z,10.47
2018-08-19T02:33:36.089Z,11.33
2018-08-19T02:36:07.278Z,14.53
2018-08-19T02:38:38.723Z,12.87
2018-08-19T02:41:09.246Z,15.70
2018-08-19T02:43:49.583Z,13.50
2018-08-19T02:46:20.271Z,13.43
2018-08-19T02:48:52.314Z,14.63
2018-08-19T02:51:50.532Z,14.00
2018-08-19T02:54:21.010Z,11.67
2018-08-19T02:56:51.372Z,12.00
2018-08-19T02:59:22.022Z,13.87
2018-08-19T03:01:52.427Z,13.67
2018-08-19T03:04:22.710Z,13.50
2018-08-19T03:06:53.252Z,12.77
2018-08-19T03:09:23.940Z,12.37
2018-08-19T03:12:09.393Z,12.60
2018-08-19T03:14:39.904Z,13.77
2018-08-19T03:17:10.570Z,13.67
2018-08-19T03:19:40.895Z,15.07
2018-08-19T03:22:11.880Z,12.10
2018-08-19T03:24:42.130Z,14.00
2018-08-19T03:27:12.683Z,14.23
2018-08-19T03:29:48.234Z,15.40
2018-08-19T03:32:18.795Z,11.53
2018-08-19T03:34:50.007Z,12.93
2018-08-19T03:37:20.397Z,11.80
2018-08-19T03:39:50.743Z,12.13
2018-08-19T03:42:21.217Z,11.07
2018-08-19T03:44:51.487Z,11.23
2018-08-19T03:47:22.241Z,14.30
2018-08-19T03:49:52.627Z,12.63
2018-08-19T03:52:23.278Z,11.30
2018-08-19T03:54:53.682Z,11.97
2018-08-19T03:57:24.251Z,12.33
2018-08-19T03:59:54.639Z,11.83
2018-08-19T04:02:25.260Z,13.40
2018-08-19T04:04:55.651Z,12.57
2018-08-19T04:07:25.974Z,28.03
2018-08-19T04:09:56.504Z,17.57
2018-08-19T04:12:27.057Z,17.07
2018-08-19T04:14:57.475Z,23.73
2018-08-19T04:17:27.855Z,15.90
2018-08-19T04:19:59.886Z,11.50
2018-08-19T04:22:30.284Z,12.10
2018-08-19T04:25:01.011Z,11.63
2018-08-19T04:27:31.299Z,13.17
2018-08-19T04:30:01.816Z,11.33
2018-08-19T04:32:32.786Z,13.10
2018-08-19T04:35:03.447Z,12.83
2018-08-19T04:37:33.836Z,13.07
2018-08-19T04:40:04.496Z,11.93
2018-08-19T04:42:34.994Z,11.13
2018-08-19T04:45:05.413Z,12.40
2018-08-19T04:47:35.777Z,11.50
2018-08-19T04:50:06.265Z,12.90
2018-08-19T04:52:36.670Z,12.67
2018-08-19T04:55:07.367Z,11.83
2018-08-19T04:57:37.854Z,12.60
2018-08-19T05:00:08.652Z,13.50
2018-08-19T05:02:39.498Z,13.50
2018-08-19T05:05:09.751Z,15.73
2018-08-19T05:07:40.151Z,13.57
2018-08-19T05:10:10.734Z,13.20
2018-08-19T05:12:41.432Z,12.70
2018-08-19T05:15:11.886Z,20.20
2018-08-19T05:17:42.179Z,26.90
2018-08-19T05:20:16.259Z,12.43
2018-08-19T05:22:46.518Z,10.37
2018-08-19T05:25:16.935Z,11.17
2018-08-19T05:27:54.270Z,12.37
2018-08-19T05:30:24.715Z,10.00
2018-08-19T05:33:00.027Z,10.80
2018-08-19T05:35:31.418Z,12.33
2018-08-19T05:38:02.993Z,11.33
2018-08-19T05:40:33.509Z,9.70
2018-08-19T05:43:04.053Z,11.33
2018-08-19T05:45:40.420Z,11.93
2018-08-19T05:48:13.352Z,9.27
2018-08-19T05:50:43.770Z,10.77
2018-08-19T05:53:14.273Z,10.27
2018-08-19T05:55:44.829Z,9.30
2018-08-19T05:58:15.087Z,10.50
2018-08-19T06:00:51.691Z,11.17
2018-08-19T06:03:22.507Z,11.77
2018-08-19T06:05:52.741Z,10.23
2018-08-19T06:08:23.167Z,11.70
2018-08-19T06:10:53.581Z,11.00
2018-08-19T06:13:23.944Z,11.23
2018-08-19T06:15:54.440Z,12.03
2018-08-19T06:18:24.786Z,11.03
2018-08-19T06:20:55.263Z,10.73
2018-08-19T06:23:25.658Z,13.40
2018-08-19T06:25:55.942Z,11.00
2018-08-19T06:28:26.576Z,13.37
2018-08-19T06:30:56.947Z,12.13
2018-08-19T06:33:27.252Z,9.80
2018-08-19T06:35:57.731Z,10.50
2018-08-19T06:38:28.180Z,10.30
2018-08-19T06:40:58.696Z,9.95
2018-08-19T06:43:29.261Z,10.45
2018-08-19T06:45:59.908Z,10.30
2018-08-19T06:48:30.342Z,8.95
2018-08-19T06:51:00.806Z,10.85
2018-08-19T06:53:31.180Z,10.30
2018-08-19T06:56:01.700Z,9.30
2018-08-19T06:58:32.430Z,12.70
2018-08-19T07:01:02.725Z,14.03
2018-08-19T07:03:33.592Z,9.93
2018-08-19T07:06:11.287Z,8.88
2018-08-19T07:08:41.834Z,10.45
2018-08-19T07:11:12.330Z,12.70
2018-08-19T07:13:42.807Z,8.68
2018-08-19T07:16:13.272Z,8.35
2018-08-19T07:18:43.761Z,10.63
2018-08-19T07:21:14.081Z,9.75
2018-08-19T07:23:44.714Z,9.68
2018-08-19T07:26:15.095Z,9.93
2018-08-19T07:28:45.409Z,9.55
2018-08-19T07:31:15.868Z,9.48
2018-08-19T07:33:46.380Z,12.03
2018-08-19T07:36:16.888Z,9.65
2018-08-19T07:38:47.346Z,10.45
2018-08-19T07:41:17.690Z,11.35
2018-08-19T07:43:48.172Z,12.93
2018-08-19T07:46:28.154Z,9.90
2018-08-19T07:48:58.624Z,9.28
2018-08-19T07:51:29.098Z,8.60
2018-08-19T07:53:59.446Z,9.63
2018-08-19T07:56:29.747Z,10.15
2018-08-19T07:59:05.199Z,9.18
2018-08-19T08:01:36.243Z,10.38
2018-08-19T08:04:07.094Z,9.40
2018-08-19T08:06:38.123Z,10.48
2018-08-19T08:09:11.218Z,8.63
2018-08-19T08:11:41.598Z,8.85
2018-08-19T08:14:12.068Z,8.18
2018-08-19T08:16:47.598Z,9.68
2018-08-19T08:19:18.008Z,10.50
2018-08-19T08:21:48.902Z,8.23
2018-08-19T08:24:19.661Z,8.93
2018-08-19T08:26:54.426Z,9.20
2018-08-19T08:29:25.071Z,10.10
2018-08-19T08:31:58.126Z,8.85
2018-08-19T08:34:29.675Z,11.22
2018-08-19T08:37:04.068Z,9.78
2018-08-19T08:39:36.478Z,9.15
2018-08-19T08:42:07.535Z,8.25
2018-08-19T08:44:38.050Z,8.45
2018-08-19T08:47:10.923Z,9.90
2018-08-19T08:49:47.352Z,10.35
2018-08-19T08:52:24.736Z,9.40
2018-08-19T08:55:00.743Z,8.63
2018-08-19T08:57:31.132Z,10.00
2018-08-19T09:00:01.523Z,10.68
2018-08-19T09:02:31.984Z,9.20
2018-08-19T09:05:02.663Z,10.08
2018-08-19T09:07:33.174Z,7.83
2018-08-19T09:10:03.632Z,8.85
2018-08-19T09:12:50.170Z,7.97
2018-08-19T09:15:20.888Z,8.88
2018-08-19T09:17:51.491Z,8.75
2018-08-19T09:20:22.281Z,7.92
2018-08-19T09:22:52.685Z,7.20
2018-08-19T09:25:23.238Z,7.75
2018-08-19T09:27:53.823Z,8.60
2018-08-19T09:30:38.343Z,6.83
2018-08-19T09:33:09.037Z,7.83
2018-08-19T09:35:40.687Z,9.65
2018-08-19T09:38:22.496Z,9.40
2018-08-19T09:40:53.392Z,8.38
2018-08-19T09:43:23.819Z,8.25
2018-08-19T09:45:54.414Z,8.20
2018-08-19T09:48:24.902Z,10.13
2018-08-19T09:51:01.494Z,7.53
2018-08-19T09:53:31.930Z,7.22
2018-08-19T09:56:09.394Z,8.00
2018-08-19T09:58:40.576Z,8.10
2018-08-19T10:01:14.076Z,6.95
2018-08-19T10:03:44.780Z,7.33
2018-08-19T10:06:15.284Z,7.15
2018-08-19T10:12:02.896Z,8.30
2018-08-19T10:14:33.418Z,7.55
2018-08-19T10:17:03.874Z,5.95
2018-08-19T10:19:34.423Z,8.78
2018-08-19T10:22:04.903Z,8.25
2018-08-19T10:24:35.716Z,6.83
2018-08-19T10:27:17.970Z,8.25
2018-08-19T10:29:48.329Z,6.58
2018-08-19T10:32:18.951Z,6.92
2018-08-19T10:34:49.615Z,7.42
2018-08-19T10:37:20.225Z,6.60
2018-08-19T10:39:56.415Z,6.55
2018-08-19T10:42:29.163Z,6.95
2018-08-19T10:44:59.462Z,7.05
2018-08-19T10:47:29.802Z,7.50
2018-08-19T10:50:04.934Z,6.58
2018-08-19T10:52:39.872Z,7.28
2018-08-19T10:55:12.022Z,6.08
2018-08-19T10:57:42.490Z,6.97
2018-08-19T11:00:19.846Z,9.53
2018-08-19T11:02:50.365Z,5.85
2018-08-19T11:05:20.813Z,6.90
2018-08-19T11:07:51.321Z,6.62
2018-08-19T11:10:23.402Z,5.83
2018-08-19T11:12:56.893Z,6.10
2018-08-19T11:15:50.489Z,6.53
2018-08-19T11:18:42.342Z,5.85
2018-08-19T11:21:20.363Z,6.60
2018-08-19T11:23:50.561Z,11.18
2018-08-19T11:26:21.010Z,5.92
2018-08-19T11:28:56.455Z,6.55
2018-08-19T11:31:33.709Z,6.25
2018-08-19T11:34:05.244Z,6.97
2018-08-19T11:36:40.320Z,5.80
2018-08-19T11:39:13.510Z,6.33
2018-08-19T11:41:43.726Z,6.90
2018-08-19T11:44:17.408Z,10.75
2018-08-19T11:46:47.317Z,7.00
2018-08-19T11:49:18.427Z,8.38
2018-08-19T11:51:52.970Z,6.28
2018-08-19T11:54:24.029Z,6.72
2018-08-19T11:57:01.698Z,6.17
2018-08-19T11:59:36.890Z,6.47
2018-08-19T12:02:09.895Z,5.15
2018-08-19T12:04:39.918Z,5.80
2018-08-19T12:07:10.033Z,5.80
2018-08-19T12:10:01.710Z,5.55
2018-08-19T12:12:46.048Z,6.00
2018-08-19T12:15:16.230Z,5.25
2018-08-19T12:17:46.238Z,6.72
2018-08-19T12:20:23.328Z,6.00
2018-08-19T12:22:53.304Z,8.85
2018-08-19T12:25:23.441Z,6.37
2018-08-19T12:27:54.198Z,5.58
2018-08-19T12:30:24.113Z,6.70
2018-08-19T12:33:09.698Z,7.72
2018-08-19T12:35:39.849Z,6.22
2018-08-19T12:38:09.869Z,7.58
2018-08-19T12:40:44.357Z,7.08
2018-08-19T12:43:14.426Z,5.60
2018-08-19T12:45:44.646Z,6.40
2018-08-19T12:48:14.857Z,5.65
2018-08-19T12:50:54.252Z,5.42
2018-08-19T12:53:24.414Z,5.80
2018-08-19T12:55:54.542Z,7.92
2018-08-19T12:58:24.607Z,6.78
2018-08-19T13:00:54.598Z,5.92
2018-08-19T13:03:28.248Z,6.12
2018-08-19T13:06:05.957Z,6.10
2018-08-19T13:08:36.106Z,5.70
2018-08-19T13:11:07.651Z,8.95
2018-08-19T13:13:37.625Z,6.92
2018-08-19T13:16:07.874Z,6.10
2018-08-19T13:18:44.263Z,5.97
2018-08-19T13:21:16.013Z,8.60
2018-08-19T13:23:46.317Z,5.45
2018-08-19T13:26:22.029Z,6.12
2018-08-19T13:28:55.244Z,5.55
2018-08-19T13:31:31.225Z,5.85
2018-08-19T13:34:01.506Z,5.87
2018-08-19T13:36:31.889Z,8.48
2018-08-19T13:39:02.021Z,6.45
2018-08-19T13:41:32.059Z,7.08
2018-08-19T13:44:02.005Z,8.13
2018-08-19T13:46:32.071Z,5.97
2018-08-19T13:49:02.214Z,6.40
2018-08-19T13:51:32.197Z,6.85
2018-08-19T13:54:02.290Z,5.75
2018-08-19T13:56:32.286Z,5.55
2018-08-19T13:59:02.562Z,5.00
2018-08-19T14:01:32.643Z,6.08
2018-08-19T14:04:02.497Z,5.97
2018-08-19T14:06:32.590Z,5.80
2018-08-19T14:09:02.590Z,7.70
2018-08-19T14:11:32.873Z,5.70
2018-08-19T14:14:02.925Z,5.55
2018-08-19T14:16:33.662Z,6.55
2018-08-19T14:19:04.337Z,6.20
2018-08-19T14:21:34.600Z,4.72
2018-08-19T14:24:05.210Z,5.10
2018-08-19T14:26:35.513Z,5.50
2018-08-19T14:29:05.995Z,4.75
2018-08-19T14:31:36.366Z,4.80
2018-08-19T14:34:06.799Z,5.35
2018-08-19T14:36:37.206Z,4.50
2018-08-19T14:48:15.461Z,4.40
2018-08-19T14:50:46.010Z,8.10
2018-08-19T14:53:16.588Z,9.03
2018-08-19T14:55:46.883Z,4.60
2018-08-19T14:58:17.175Z,4.78
2018-08-19T15:00:47.415Z,4.85
2018-08-19T15:03:17.560Z,5.45
2018-08-19T15:06:03.353Z,5.30
2018-08-19T15:08:36.025Z,4.70
2018-08-19T15:11:06.178Z,5.28
2018-08-19T15:13:36.128Z,5.10
2018-08-19T15:16:06.459Z,6.87
2018-08-19T15:18:36.415Z,7.53
2018-08-19T15:21:06.319Z,5.75
2018-08-19T15:23:36.350Z,5.70
2018-08-19T15:26:06.549Z,5.83
2018-08-19T15:28:38.934Z,5.00
2018-08-19T15:31:14.903Z,5.00
2018-08-19T15:33:45.397Z,5.50
2018-08-19T15:36:16.074Z,4.62
2018-08-19T15:38:46.869Z,5.28
2018-08-19T15:41:17.457Z,4.80
2018-08-19T15:43:47.889Z,4.90
2018-08-19T15:46:18.896Z,4.70
2018-08-19T15:48:54.120Z,6.85
2018-08-19T15:51:24.928Z,5.83
2018-08-19T15:53:55.009Z,5.97
2018-08-19T15:56:28.001Z,6.58
2018-08-19T15:58:58.254Z,5.50
2018-08-19T16:01:32.478Z,5.20
2018-08-19T16:04:07.169Z,6.95
2018-08-19T16:06:56.945Z,5.33
2018-08-19T16:09:28.085Z,5.03
2018-08-19T16:11:58.609Z,5.90
2018-08-19T16:14:30.207Z,4.90
2018-08-19T16:17:02.126Z,5.37
2018-08-19T16:19:33.090Z,5.25
2018-08-19T16:22:03.982Z,5.10
2018-08-19T16:24:34.628Z,5.58
2018-08-19T16:27:19.291Z,4.87
2018-08-19T16:29:49.673Z,5.20
2018-08-19T16:32:20.373Z,4.90
2018-08-19T16:34:51.184Z,5.60
2018-08-19T16:37:22.134Z,5.40
2018-08-19T16:39:59.621Z,5.60
2018-08-19T16:42:30.768Z,6.90
2018-08-19T16:45:01.485Z,5.75
2018-08-19T16:47:32.455Z,5.85
2018-08-19T16:50:26.326Z,5.45
2018-08-19T16:52:57.201Z,5.62
2018-08-19T16:55:28.239Z,5.17
2018-08-19T16:58:22.550Z,5.85
2018-08-19T17:00:53.907Z,6.15
2018-08-19T17:03:41.514Z,5.12
2018-08-19T17:06:14.581Z,6.53
2018-08-19T17:08:51.608Z,5.53
2018-08-19T17:11:22.790Z,6.03
2018-08-19T17:13:54.329Z,5.65
2018-08-19T17:16:26.303Z,5.30
2018-08-19T17:19:06.385Z,10.13
2018-08-19T17:21:38.372Z,6.62
2018-08-19T17:24:09.344Z,7.40
2018-08-19T17:26:40.688Z,6.42
2018-08-19T17:29:16.390Z,11.85
2018-08-19T17:31:47.375Z,7.53
2018-08-19T17:34:20.019Z,6.90
2018-08-19T17:36:51.019Z,8.30
2018-08-19T17:39:23.212Z,7.97
2018-08-19T17:41:54.582Z,6.53
2018-08-19T17:44:25.439Z,7.57
2018-08-19T17:46:57.567Z,7.37
2018-08-19T17:49:29.587Z,6.87
2018-08-19T17:52:01.572Z,7.30
2018-08-19T17:54:33.118Z,12.30
2018-08-19T17:57:26.618Z,7.97
2018-08-19T17:59:57.276Z,7.07
2018-08-19T18:02:28.244Z,6.67
2018-08-19T18:04:59.678Z,7.23
2018-08-19T18:07:30.576Z,7.20
2018-08-19T18:10:01.585Z,7.53
2018-08-19T18:12:32.244Z,6.80
2018-08-19T18:15:09.725Z,7.70
2018-08-19T18:17:56.645Z,9.73
2018-08-19T18:20:41.766Z,26.57
2018-08-19T18:23:17.799Z,10.10
2018-08-19T18:25:51.239Z,8.70
2018-08-19T18:28:28.270Z,7.57
2018-08-19T18:31:11.495Z,7.30
2018-08-19T18:34:18.065Z,6.63
2018-08-19T18:36:48.573Z,7.17
2018-08-19T18:39:19.014Z,10.30
2018-08-19T18:41:53.717Z,12.23
2018-08-19T18:44:24.264Z,18.17
2018-08-19T18:46:54.702Z,10.80
2018-08-19T18:49:45.396Z,7.10
2018-08-19T18:52:18.719Z,14.23
2018-08-19T18:54:49.084Z,8.60
2018-08-19T18:57:19.934Z,6.80
2018-08-19T18:59:50.794Z,8.50
2018-08-19T19:02:21.381Z,14.10
2018-08-19T19:04:52.886Z,13.43
2018-08-19T19:07:23.670Z,16.00
2018-08-19T19:09:56.964Z,13.60
2018-08-19T19:12:27.464Z,10.27
2018-08-19T19:14:57.999Z,11.70
2018-08-19T19:17:28.690Z,9.50
2018-08-19T19:20:02.568Z,8.40
2018-08-19T19:22:48.914Z,8.53
2018-08-19T19:25:26.763Z,7.20
2018-08-19T19:27:58.166Z,8.80
2018-08-19T19:30:29.438Z,8.30
2018-08-19T19:33:03.935Z,8.70
2018-08-19T19:35:34.302Z,12.50
2018-08-19T19:38:06.444Z,11.13
2018-08-19T19:40:37.046Z,11.77
2018-08-19T19:43:07.543Z,22.47
2018-08-19T19:45:43.671Z,11.43
2018-08-19T19:48:14.104Z,8.63
2018-08-19T19:50:49.728Z,10.67
2018-08-19T19:53:20.022Z,8.77
2018-08-19T19:55:51.555Z,9.47
2018-08-19T19:58:21.755Z,8.00
2018-08-19T20:00:55.774Z,8.43
2018-08-19T20:03:26.702Z,7.63
2018-08-19T20:05:57.251Z,9.63
2018-08-19T20:08:34.118Z,10.17
2018-08-19T20:11:05.193Z,7.83
2018-08-19T20:13:38.811Z,9.10
2018-08-19T20:16:15.437Z,7.40
2018-08-19T20:18:47.174Z,9.43
2018-08-19T20:21:25.255Z,6.93
2018-08-19T20:23:57.897Z,7.77
2018-08-19T20:26:29.404Z,11.67
2018-08-19T20:29:08.429Z,13.37
2018-08-19T20:31:39.835Z,9.93
2018-08-19T20:34:10.389Z,11.73
2018-08-19T20:36:40.840Z,8.90
2018-08-19T20:39:10.883Z,6.90
2018-08-19T20:41:41.106Z,7.60
2018-08-19T20:44:11.252Z,9.47
2018-08-19T20:46:46.211Z,7.80
2018-08-19T20:49:28.040Z,10.07
2018-08-19T20:51:58.565Z,7.73
2018-08-19T20:54:28.779Z,9.07
2018-08-19T20:56:58.974Z,7.30
2018-08-19T20:59:34.133Z,8.30
2018-08-19T21:02:05.392Z,7.80
2018-08-19T21:04:41.915Z,7.40
2018-08-19T21:07:12.242Z,7.83
2018-08-19T21:09:42.582Z,7.80
2018-08-19T21:12:20.740Z,7.70
2018-08-19T21:14:51.797Z,10.43
2018-08-19T21:17:21.800Z,7.40
2018-08-19T21:19:51.713Z,7.87
2018-08-19T21:22:22.082Z,7.63
2018-08-19T21:24:52.640Z,7.70
2018-08-19T21:27:23.639Z,8.77
2018-08-19T21:29:58.415Z,8.50
2018-08-19T21:32:28.766Z,7.97
2018-08-19T21:34:59.256Z,8.40
2018-08-19T21:37:34.747Z,8.53
2018-08-19T21:40:06.204Z,7.40
2018-08-19T21:42:54.142Z,9.10
2018-08-19T21:45:24.602Z,7.97
2018-08-19T21:47:54.791Z,8.40
2018-08-19T21:50:25.441Z,8.43
2018-08-19T21:53:06.930Z,12.63
2018-08-19T21:55:43.659Z,9.83
2018-08-19T21:58:14.546Z,8.93
2018-08-19T22:00:50.314Z,10.90
2018-08-19T22:03:25.861Z,8.33
2018-08-19T22:05:58.042Z,12.93
2018-08-19T22:08:28.927Z,10.87
2018-08-19T22:11:01.618Z,8.77
2018-08-19T22:13:34.285Z,8.70
2018-08-19T22:16:04.926Z,9.27
2018-08-19T22:18:35.952Z,9.27
2018-08-19T22:21:23.677Z,8.20
2018-08-19T22:23:58.085Z,10.27
2018-08-19T22:26:28.626Z,8.87
2018-08-19T22:29:14.951Z,9.83
2018-08-19T22:31:47.710Z,10.07
2018-08-19T22:34:18.301Z,9.10
2018-08-19T22:36:49.242Z,10.47
2018-08-19T22:39:22.047Z,8.10
2018-08-19T22:41:53.068Z,8.30
2018-08-19T22:44:23.791Z,9.73
2018-08-19T22:46:54.787Z,7.60
2018-08-19T22:49:28.555Z,9.10
2018-08-19T22:52:28.051Z,7.20
2018-08-19T22:54:59.497Z,8.37
2018-08-19T22:57:35.975Z,8.00
2018-08-19T23:00:08.506Z,8.13
2018-08-19T23:02:39.398Z,10.83
2018-08-19T23:05:10.048Z,9.97
2018-08-19T23:07:40.677Z,8.47
2018-08-19T23:10:11.162Z,9.10
2018-08-19T23:12:43.132Z,9.67
2018-08-19T23:15:32.977Z,8.43
2018-08-19T23:18:03.627Z,8.13
2018-08-19T23:20:36.395Z,9.40
2018-08-19T23:23:11.119Z,7.23
2018-08-19T23:25:41.577Z,10.40
2018-08-19T23:28:12.046Z,8.83
2018-08-19T23:30:42.732Z,9.03
2018-08-19T23:33:13.138Z,9.83
2018-08-19T23:35:43.505Z,9.97
2018-08-19T23:38:13.973Z,11.00
2018-08-19T23:40:48.303Z,7.90
2018-08-19T23:43:19.324Z,9.13
2018-08-19T23:45:49.679Z,10.37
2018-08-19T23:48:20.027Z,8.00
2018-08-19T23:50:50.859Z,10.00
2018-08-19T23:53:21.367Z,10.00
2018-08-19T23:55:51.699Z,8.50
2018-08-19T23:58:34.434Z,8.60
